Leyenda:
Bajo (0-210)
Muy Alto (490 - 630)

Moderado (210 - 350)
Extremo (630+)

Alto (350 - 490)


Flame  Flame
930.4
Fecha Temp (°C) Viento (km/h) Lluvia (mm) Humedad Días desde lluvia pwsFWI
Predicción activa. Valores por encima de la línea roja.
21/08/22 36,0 14,0 0,0 0,25 3 819,6
20/08/22 35,0 14,0 0,0 0,29 2 926,6
19/08/22 34,0 16,0 0,0 0,27 1 929,2
18/08/22 35,0 16,0 0,2 0,24 0 1001,6
17/08/22 37,0 15,0 0,0 0,16 4 980,6
16/08/22 37,7 15,0 0,0 0,17 3 930,4
15/08/22 39,1 18,0 0,0 0,08 2 888,7
14/08/22 39,8 10,0 0,0 0,21 1 767,1
13/08/22 40,4 16,0 0,2 0,18 0 763,8
12/08/22 38,5 10,0 0,2 0,18 0 652,1
11/08/22 35,3 14,0 0,0 0,32 51 691,7
10/08/22 35,8 15,0 0,0 0,31 50 687,4
09/08/22 36,4 13,0 0,0 0,29 49 666,1
08/08/22 37,0 12,0 0,0 0,25 48 669,8
07/08/22 36,1 10,0 0,0 0,28 47 691,6
06/08/22 36,4 11,0 0,0 0,25 46 685,0
05/08/22 37,1 11,0 0,0 0,24 45 678,3
04/08/22 36,6 11,0 0,0 0,25 44 639,7
03/08/22 36,9 13,0 0,0 0,28 43 618,3
02/08/22 37,3 14,0 0,0 0,24 42 588,9
01/08/22 35,3 11,0 0,0 0,36 41 505,5
31/07/22 34,5 16,0 0,0 0,46 40 495,4
30/07/22 34,2 14,0 0,0 0,55 39 708,3
29/07/22 36,9 12,0 0,0 0,46 38 767,5
28/07/22 36,4 14,0 0,0 0,48 37 768,5
27/07/22 34,6 11,0 0,0 0,56 36 790,7
26/07/22 35,3 13,0 0,0 0,52 35 825,1
25/07/22 45,3 16,0 0,0 0,01 34 873,1
24/07/22 38,6 12,0 0,0 0,22 33 684,8
23/07/22 37,6 9,0 0,0 0,29 32 669,0
22/07/22 37,2 11,0 0,0 0,20 31 721,8
21/07/22 36,4 10,0 0,0 0,27 30 721,4
20/07/22 35,1 15,0 0,0 0,29 29 748,0
19/07/22 37,1 12,0 0,0 0,20 28 789,8
18/07/22 37,7 11,0 0,0 0,21 27 779,7
17/07/22 37,4 13,0 0,0 0,18 26 791,0
16/07/22 38,6 10,0 0,0 0,18 25 757,2
15/07/22 37,5 11,0 0,0 0,18 24 727,5
14/07/22 37,8 15,0 0,0 0,17 23 692,0
13/07/22 38,8 9,0 0,0 0,10 22 614,5
12/07/22 36,3 13,0 0,0 0,20 21 564,9
11/07/22 36,3 10,0 0,0 0,14 20 517,5
10/07/22 35,3 10,0 0,0 0,27 19 475,3
09/07/22 34,5 11,0 0,0 0,32 18 460,1
08/07/22 33,7 12,0 0,0 0,31 17 463,0
07/07/22 33,1 11,0 0,0 0,43 16 438,7
06/07/22 33,5 17,0 0,0 0,55 15 459,2
05/07/22 33,6 14,0 0,0 0,57 14 451,9
04/07/22 37,1 9,0 0,0 0,39 13 480,6
03/07/22 34,0 13,0 0,0 0,38 12 474,6
02/07/22 31,5 12,0 0,0 0,43 11 485,9
01/07/22 31,2 18,0 0,0 0,48 10 492,3
30/06/22 32,4 11,0 0,0 0,32 9 525,1
29/06/22 32,9 14,0 0,0 0,34 8 597,0
28/06/22 32,0 13,0 0,0 0,48 7 667,7
27/06/22 32,3 13,0 0,0 0,22 6 709,1
26/06/22 32,4 11,0 0,0 0,34 5 610,2
25/06/22 35,3 13,0 0,0 0,20 4 612,8
24/06/22 33,3 19,0 0,0 0,25 3 579,8
23/06/22 33,2 19,0 0,0 0,15 2 548,3
22/06/22 32,3 16,0 0,0 0,31 1 541,6
21/06/22 35,0 12,0 4,2 0,41 0 639,4
20/06/22 34,4 11,0 0,0 0,38 46 765,7
19/06/22 35,1 12,0 0,0 0,36 45 799,6
18/06/22 38,2 10,0 0,0 0,14 44 834,0
17/06/22 39,9 12,0 0,0 0,10 43 829,4
16/06/22 38,5 14,0 0,0 0,13 42 760,6
15/06/22 37,2 12,0 0,0 0,21 41 656,0
14/06/22 38,3 9,0 0,0 0,10 40 609,2
13/06/22 36,3 11,0 0,0 0,08 39 671,9
12/06/22 34,3 12,0 0,0 0,14 38 681,0
11/06/22 32,8 12,0 0,0 0,24 37 687,9
10/06/22 32,4 11,0 0,0 0,42 36 733,0
09/06/22 33,2 12,0 0,0 0,39 35 810,6
08/06/22 37,7 17,0 0,0 0,22 34 812,8
07/06/22 36,8 13,0 0,0 0,18 33 722,6
06/06/22 34,3 13,0 0,0 0,15 32 642,3
05/06/22 34,1 16,0 0,0 0,20 31 599,4
04/06/22 32,5 16,0 0,0 0,10 30 580,6
03/06/22 32,1 14,0 0,0 0,42 29 629,5
02/06/22 34,1 11,0 0,0 0,29 28 716,7
01/06/22 32,2 10,0 0,0 0,45 27 750,1
31/05/22 31,4 13,0 0,0 0,35 26 756,8
30/05/22 33,2 15,0 0,0 0,22 25 752,1
29/05/22 35,9 19,0 0,0 0,15 24 723,5
28/05/22 32,9 21,0 0,0 0,21 23 625,5
27/05/22 32,6 15,0 0,0 0,20 22 522,7
26/05/22 27,1 13,0 0,0 0,35 21 491,8
25/05/22 26,8 14,0 0,0 0,25 20 497,9
24/05/22 30,7 15,0 0,0 0,31 19 505,2
23/05/22 34,6 12,0 0,0 0,29 18 493,9
22/05/22 36,2 7,0 0,0 0,24 17 454,7
21/05/22 31,1 13,0 0,0 0,25 16 465,1
20/05/22 30,7 13,0 0,0 0,41 15 433,8
19/05/22 29,9 15,0 0,0 0,35 14 428,9
18/05/22 32,6 11,0 0,0 0,25 13 401,4
17/05/22 32,4 10,0 0,0 0,43 12 375,1
16/05/22 31,7 13,0 0,0 0,38 11 366,3
15/05/22 30,0 10,0 0,0 0,32 10 329,1
14/05/22 29,1 11,0 0,0 0,28 9 324,7

CumulusUtils Version 6.8.3 - generated at 17/08/2022 9:47:23 - © Hans Rottier
Science background here. Prediction: https://www.yourweather.co.uk/